Teruhou Maru No.22 — JD3202 — position and weather

sailwx.info

Track history (hours):
 
Tides and Currents Weather Stations Pressure Air Temp Water Temp Dewpoint Dewpoint Depression Visibility Wind Speed Wind Dir Waves Ship Positions

Teruhou Maru No.22

Last reported at 2017-Aug-19 10:47 UTC. Time now 2017-Aug-19 15:07 UTC.
Position N 35°22' E 139°54'.

Length 76 m; draft 5 m.

Type: Cargo ship. MMSI: 431002552.

Date/timePositionNaut miles runAvg speedWind from/ knotsBaromVisibWave heightAir tempDewpointWater temp
2017-Aug-19 10:47N 35°22' E 139°54'1 0.9
2017-Aug-19 10:03N 35°22' E 139°53'0 3.8
2017-Aug-19 10:00N 35°22' E 139°53'511.1
2017-Aug-19 09:30N 35°27' E 139°50'612.6
2017-Aug-19 09:00N 35°33' E 139°54'8 1.1
2017-Aug-19 01:40N 35°40' E 139°57'1 6.7
2017-Aug-19 01:30N 35°39' E 139°58'1 0.0
2017-Aug-17 00:47N 35°40' E 139°59'4 0.2
2017-Aug-16 06:08N 35°36' E 139°57'1 9.7
2017-Aug-16 06:00N 35°35' E 139°56'611.1
2017-Aug-16 05:30N 35°30' E 139°53'510.9
2017-Aug-16 05:00N 35°26' E 139°48'510.9
2017-Aug-16 04:30N 35°21' E 139°45'5 9.5
2017-Aug-16 04:00N 35°16' E 139°46'5 9.9
2017-Aug-16 03:30N 35°12' E 139°47'510.4
2017-Aug-16 03:00N 35°07' E 139°44'510.8
2017-Aug-16 02:30N 35°03' E 139°39'610.9
2017-Aug-16 01:59N 34°60' E 139°34'23110.2
2017-Aug-15 03:24N 34°04' E 135°01'1911.6
2017-Aug-15 01:47N 34°23' E 134°59'411.0
2017-Aug-15 01:25N 34°27' E 135°00'511.3
2017-Aug-15 01:00N 34°32' E 135°02'5 9.7
2017-Aug-15 00:28N 34°37' E 135°01'6 0.1
2017-Aug-13 00:24N 34°37' E 134°54'613.3
2017-Aug-12 23:57N 34°37' E 135°01'510.8
2017-Aug-12 23:29N 34°33' E 135°05'  
2017-Aug-09 17:52N 34°57' E 139°24'411.7
2017-Aug-09 17:31N 34°59' E 139°28'611.5
2017-Aug-09 17:01N 35°03' E 139°34'611.9
2017-Aug-09 16:31N 35°06' E 139°40'612.1
2017-Aug-09 16:01N 35°11' E 139°45'611.2
2017-Aug-09 15:31N 35°16' E 139°45'611.4
2017-Aug-09 15:01N 35°21' E 139°42'611.6
2017-Aug-09 14:31N 35°26' E 139°46'612.0
2017-Aug-09 13:59N 35°31' E 139°51'  
Track history (hours):
 
Tides and Currents Weather Stations Pressure Air Temp Water Temp Dewpoint Dewpoint Depression Visibility Wind Speed Wind Dir Waves Ship Positions

Teruhou Maru No.22

Last reported at 2017-Aug-19 10:47 UTC. Time now 2017-Aug-19 15:07 UTC.
Position N 35°22' E 139°54'.

Length 76 m; draft 5 m.

Type: Cargo ship. MMSI: 431002552.

Date/timePositionNaut miles runAvg speedWind from/ knotsBaromVisibWave heightAir tempDewpointWater temp
2017-Aug-19 10:47N 35°22' E 139°54'1 0.9
2017-Aug-19 10:03N 35°22' E 139°53'0 3.8
2017-Aug-19 10:00N 35°22' E 139°53'511.1
2017-Aug-19 09:30N 35°27' E 139°50'612.6
2017-Aug-19 09:00N 35°33' E 139°54'8 1.1
2017-Aug-19 01:40N 35°40' E 139°57'1 6.7
2017-Aug-19 01:30N 35°39' E 139°58'1 0.0
2017-Aug-17 00:47N 35°40' E 139°59'4 0.2
2017-Aug-16 06:08N 35°36' E 139°57'1 9.7
2017-Aug-16 06:00N 35°35' E 139°56'611.1
2017-Aug-16 05:30N 35°30' E 139°53'510.9
2017-Aug-16 05:00N 35°26' E 139°48'510.9
2017-Aug-16 04:30N 35°21' E 139°45'5 9.5
2017-Aug-16 04:00N 35°16' E 139°46'5 9.9
2017-Aug-16 03:30N 35°12' E 139°47'510.4
2017-Aug-16 03:00N 35°07' E 139°44'510.8
2017-Aug-16 02:30N 35°03' E 139°39'610.9
2017-Aug-16 01:59N 34°60' E 139°34'23110.2
2017-Aug-15 03:24N 34°04' E 135°01'1911.6
2017-Aug-15 01:47N 34°23' E 134°59'411.0
2017-Aug-15 01:25N 34°27' E 135°00'511.3
2017-Aug-15 01:00N 34°32' E 135°02'5 9.7
2017-Aug-15 00:28N 34°37' E 135°01'6 0.1
2017-Aug-13 00:24N 34°37' E 134°54'613.3
2017-Aug-12 23:57N 34°37' E 135°01'510.8
2017-Aug-12 23:29N 34°33' E 135°05'  
2017-Aug-09 17:52N 34°57' E 139°24'411.7
2017-Aug-09 17:31N 34°59' E 139°28'611.5
2017-Aug-09 17:01N 35°03' E 139°34'611.9
2017-Aug-09 16:31N 35°06' E 139°40'612.1
2017-Aug-09 16:01N 35°11' E 139°45'611.2
2017-Aug-09 15:31N 35°16' E 139°45'611.4
2017-Aug-09 15:01N 35°21' E 139°42'611.6
2017-Aug-09 14:31N 35°26' E 139°46'612.0
2017-Aug-09 13:59N 35°31' E 139°51'  

Dump ship's entire track history